GMT1144 MMMX-MMSD
Flight info
| Callsign | GMT1144 |
|---|---|
| Flight time | 1h 39m |
| Altitude | 38000 |
| Route | SEBON3B SEBON UT124 GDL UJ3 RADAP UT153 DEDKU UT14 TENAY TENAY1B |
| Aircraft | B737/M-SDE2E3FGHIRWXY/LB1 |
Departure
| Time | 2026-04-24 02:55 |
|---|---|
| Airport | Mexico City Benito Juárez International Airport (MMMX) |
Arrival
| Time | 2026-04-24 04:34 |
|---|---|
| Airport | Los Cabos International Airport (MMSD) |
| Time | Latitude | Longitude | Altitude | Speed | Heading |
|---|---|---|---|---|---|
| 2026-04-24 01:55 | 19.43450 | -99.08169 | 7295 ft | 0 kts | 28° |
| 2026-04-24 02:00 | 19.43456 | -99.08169 | 7302 ft | 0 kts | 27° |
| 2026-04-24 02:39 | 19.43441 | -99.08176 | 7302 ft | 4 kts | 26° |
| 2026-04-24 02:39 | 19.43417 | -99.08189 | 7302 ft | 4 kts | 26° |
| 2026-04-24 02:39 | 19.43393 | -99.08202 | 7302 ft | 4 kts | 26° |
| 2026-04-24 02:39 | 19.43369 | -99.08215 | 7302 ft | 4 kts | 32° |
| 2026-04-24 02:40 | 19.43349 | -99.08232 | 7302 ft | 2 kts | 58° |
| 2026-04-24 02:40 | 19.43349 | -99.08233 | 7302 ft | 3 kts | 59° |
| 2026-04-24 02:45 | 19.43361 | -99.08212 | 7302 ft | 7 kts | 59° |
| 2026-04-24 02:46 | 19.43394 | -99.08152 | 7302 ft | 12 kts | 59° |
| 2026-04-24 02:46 | 19.43444 | -99.08063 | 7302 ft | 16 kts | 59° |
| 2026-04-24 02:46 | 19.43509 | -99.07947 | 7302 ft | 20 kts | 59° |
| 2026-04-24 02:46 | 19.43583 | -99.07816 | 7302 ft | 20 kts | 59° |
| 2026-04-24 02:47 | 19.43655 | -99.07687 | 7302 ft | 20 kts | 59° |
| 2026-04-24 02:47 | 19.43727 | -99.07559 | 7302 ft | 20 kts | 59° |
| 2026-04-24 02:47 | 19.43798 | -99.07433 | 7302 ft | 20 kts | 59° |
| 2026-04-24 02:47 | 19.43869 | -99.07307 | 7302 ft | 20 kts | 59° |
| 2026-04-24 02:48 | 19.43939 | -99.07181 | 7302 ft | 20 kts | 59° |
| 2026-04-24 02:48 | 19.44012 | -99.07056 | 7302 ft | 20 kts | 59° |
| 2026-04-24 02:48 | 19.44078 | -99.06932 | 7302 ft | 20 kts | 59° |
| 2026-04-24 02:48 | 19.44149 | -99.06808 | 7302 ft | 20 kts | 58° |
| 2026-04-24 02:49 | 19.44219 | -99.06685 | 7302 ft | 20 kts | 59° |
| 2026-04-24 02:49 | 19.44288 | -99.06560 | 7302 ft | 20 kts | 58° |
| 2026-04-24 02:49 | 19.44357 | -99.06439 | 7302 ft | 15 kts | 59° |
| 2026-04-24 02:49 | 19.44404 | -99.06358 | 7302 ft | 6 kts | 60° |
| 2026-04-24 02:50 | 19.44406 | -99.06353 | 7302 ft | 1 kts | 61° |
| 2026-04-24 02:50 | 19.44410 | -99.06344 | 7302 ft | 1 kts | 64° |
| 2026-04-24 02:50 | 19.44412 | -99.06339 | 7302 ft | 0 kts | 65° |
| 2026-04-24 02:50 | 19.44414 | -99.06335 | 7302 ft | 0 kts | 69° |
| 2026-04-24 02:51 | 19.44415 | -99.06332 | 7302 ft | 2 kts | 70° |
| 2026-04-24 02:51 | 19.44418 | -99.06321 | 7302 ft | 1 kts | 77° |
| 2026-04-24 02:51 | 19.44420 | -99.06304 | 7302 ft | 3 kts | 85° |
| 2026-04-24 02:51 | 19.44418 | -99.06279 | 7302 ft | 4 kts | 100° |
| 2026-04-24 02:52 | 19.44395 | -99.06216 | 7302 ft | 15 kts | 112° |
| 2026-04-24 02:52 | 19.44346 | -99.06087 | 7302 ft | 19 kts | 112° |
| 2026-04-24 02:52 | 19.44340 | -99.05961 | 7302 ft | 16 kts | 62° |
| 2026-04-24 02:52 | 19.44393 | -99.05868 | 7302 ft | 13 kts | 59° |
| 2026-04-24 02:53 | 19.44448 | -99.05813 | 7302 ft | 8 kts | 8° |
| 2026-04-24 02:53 | 19.44501 | -99.05813 | 7302 ft | 8 kts | 356° |
| 2026-04-24 02:53 | 19.44554 | -99.05834 | 7301 ft | 9 kts | 301° |
| 2026-04-24 02:53 | 19.44542 | -99.05878 | 7301 ft | 5 kts | 240° |
| 2026-04-24 02:54 | 19.44540 | -99.05881 | 7301 ft | 0 kts | 240° |
| 2026-04-24 02:54 | 19.44536 | -99.05888 | 7301 ft | 12 kts | 240° |
| 2026-04-24 02:55 | 19.44345 | -99.06227 | 7301 ft | 93 kts | 239° |
| 2026-04-24 02:55 | 19.43887 | -99.07042 | 7305 ft | 161 kts | 239° |
| 2026-04-24 02:55 | 19.43248 | -99.08180 | 7803 ft | 186 kts | 239° |
| 2026-04-24 02:55 | 19.42621 | -99.09325 | 9144 ft | 171 kts | 241° |
| 2026-04-24 02:56 | 19.42028 | -99.10467 | 9652 ft | 192 kts | 243° |
| 2026-04-24 02:56 | 19.41280 | -99.11793 | 9865 ft | 224 kts | 240° |
| 2026-04-24 02:56 | 19.40510 | -99.13114 | 10101 ft | 244 kts | 240° |
| 2026-04-24 02:56 | 19.39604 | -99.14688 | 10514 ft | 257 kts | 241° |
| 2026-04-24 02:57 | 19.38715 | -99.16249 | 11071 ft | 265 kts | 241° |
| 2026-04-24 02:57 | 19.37767 | -99.17926 | 11904 ft | 267 kts | 244° |
| 2026-04-24 02:57 | 19.37215 | -99.19782 | 12697 ft | 266 kts | 270° |
| 2026-04-24 02:57 | 19.37529 | -99.21702 | 13455 ft | 267 kts | 297° |
| 2026-04-24 02:58 | 19.38575 | -99.23307 | 14231 ft | 266 kts | 319° |
| 2026-04-24 02:58 | 19.40002 | -99.24553 | 15005 ft | 268 kts | 323° |
| 2026-04-24 02:58 | 19.41511 | -99.25782 | 15588 ft | 280 kts | 323° |
| 2026-04-24 02:58 | 19.43127 | -99.27107 | 15781 ft | 308 kts | 323° |
| 2026-04-24 02:59 | 19.44882 | -99.28562 | 15957 ft | 333 kts | 322° |
| 2026-04-24 02:59 | 19.46504 | -99.30423 | 16107 ft | 359 kts | 302° |
| 2026-04-24 02:59 | 19.47404 | -99.32970 | 16252 ft | 383 kts | 279° |
| 2026-04-24 02:59 | 19.47230 | -99.35806 | 16514 ft | 402 kts | 255° |
| 2026-04-24 03:00 | 19.46216 | -99.38600 | 17073 ft | 408 kts | 248° |
| 2026-04-24 03:00 | 19.45112 | -99.41383 | 17707 ft | 411 kts | 249° |
| 2026-04-24 03:00 | 19.44046 | -99.44198 | 18364 ft | 412 kts | 249° |
| 2026-04-24 03:00 | 19.42997 | -99.47068 | 18939 ft | 415 kts | 250° |
| 2026-04-24 03:01 | 19.41964 | -99.49937 | 19457 ft | 417 kts | 250° |
| 2026-04-24 03:01 | 19.40930 | -99.52816 | 19928 ft | 420 kts | 250° |
| 2026-04-24 03:01 | 19.39883 | -99.55721 | 20352 ft | 424 kts | 250° |
| 2026-04-24 03:01 | 19.38825 | -99.58646 | 20794 ft | 426 kts | 250° |
| 2026-04-24 03:02 | 19.38026 | -99.61663 | 21188 ft | 428 kts | 264° |
| 2026-04-24 03:02 | 19.37816 | -99.64806 | 21655 ft | 428 kts | 268° |
| 2026-04-24 03:02 | 19.37682 | -99.67968 | 22061 ft | 430 kts | 269° |
| 2026-04-24 03:02 | 19.37540 | -99.71145 | 22418 ft | 433 kts | 268° |
| 2026-04-24 03:03 | 19.37373 | -99.74293 | 22762 ft | 435 kts | 268° |
| 2026-04-24 03:03 | 19.37179 | -99.77539 | 23116 ft | 438 kts | 268° |
| 2026-04-24 03:03 | 19.36977 | -99.80762 | 23457 ft | 440 kts | 268° |
| 2026-04-24 03:03 | 19.36774 | -99.83964 | 23761 ft | 442 kts | 268° |
| 2026-04-24 03:04 | 19.36565 | -99.87252 | 24010 ft | 444 kts | 268° |
| 2026-04-24 03:04 | 19.36427 | -99.89426 | 24178 ft | 445 kts | 268° |
| 2026-04-24 03:04 | 19.36219 | -99.92690 | 24431 ft | 446 kts | 268° |
| 2026-04-24 03:04 | 19.36010 | -99.95979 | 24682 ft | 448 kts | 268° |
| 2026-04-24 03:05 | 19.35800 | -99.99279 | 24941 ft | 450 kts | 268° |
| 2026-04-24 03:05 | 19.35588 | -100.02599 | 25196 ft | 452 kts | 268° |
| 2026-04-24 03:05 | 19.35376 | -100.05916 | 25465 ft | 453 kts | 268° |
| 2026-04-24 03:05 | 19.35161 | -100.09255 | 25721 ft | 454 kts | 268° |
| 2026-04-24 03:06 | 19.35027 | -100.12599 | 25942 ft | 455 kts | 274° |
| 2026-04-24 03:06 | 19.35598 | -100.15882 | 26147 ft | 454 kts | 289° |
| 2026-04-24 03:06 | 19.36645 | -100.19036 | 26506 ft | 452 kts | 291° |
| 2026-04-24 03:06 | 19.37722 | -100.22156 | 26840 ft | 451 kts | 291° |
| 2026-04-24 03:07 | 19.38807 | -100.25304 | 26884 ft | 458 kts | 291° |
| 2026-04-24 03:07 | 19.39893 | -100.28495 | 26933 ft | 463 kts | 290° |
| 2026-04-24 03:07 | 19.40962 | -100.31685 | 26962 ft | 468 kts | 290° |
| 2026-04-24 03:07 | 19.42045 | -100.34953 | 27009 ft | 472 kts | 290° |
| 2026-04-24 03:08 | 19.43125 | -100.38235 | 27086 ft | 474 kts | 290° |
| 2026-04-24 03:08 | 19.45302 | -100.44876 | 27460 ft | 473 kts | 290° |
| 2026-04-24 03:08 | 19.46363 | -100.48119 | 27721 ft | 471 kts | 290° |
| 2026-04-24 03:09 | 19.47433 | -100.51385 | 27982 ft | 469 kts | 290° |
| 2026-04-24 03:09 | 19.48518 | -100.54698 | 28197 ft | 469 kts | 290° |
| 2026-04-24 03:09 | 19.49588 | -100.57966 | 28409 ft | 469 kts | 290° |
| 2026-04-24 03:09 | 19.50656 | -100.61230 | 28690 ft | 468 kts | 290° |
| 2026-04-24 03:10 | 19.51718 | -100.64479 | 29009 ft | 466 kts | 290° |
| 2026-04-24 03:10 | 19.52796 | -100.67778 | 29289 ft | 466 kts | 290° |
| 2026-04-24 03:10 | 19.53857 | -100.71027 | 29570 ft | 465 kts | 290° |
| 2026-04-24 03:10 | 19.54916 | -100.74259 | 29902 ft | 464 kts | 290° |
| 2026-04-24 03:11 | 19.56000 | -100.77483 | 30235 ft | 463 kts | 291° |
| 2026-04-24 03:11 | 19.57094 | -100.80682 | 30565 ft | 461 kts | 291° |
| 2026-04-24 03:11 | 19.58195 | -100.83886 | 30915 ft | 460 kts | 291° |
| 2026-04-24 03:11 | 19.59286 | -100.87063 | 31292 ft | 458 kts | 291° |
| 2026-04-24 03:12 | 19.60372 | -100.90234 | 31664 ft | 457 kts | 291° |
| 2026-04-24 03:12 | 19.61454 | -100.93401 | 32017 ft | 456 kts | 291° |
| 2026-04-24 03:12 | 19.62529 | -100.96556 | 32412 ft | 454 kts | 291° |
| 2026-04-24 03:12 | 19.63612 | -100.99743 | 32789 ft | 453 kts | 291° |
| 2026-04-24 03:13 | 19.64694 | -101.02929 | 33182 ft | 451 kts | 291° |
| 2026-04-24 03:13 | 19.65754 | -101.06053 | 33595 ft | 449 kts | 291° |
| 2026-04-24 03:13 | 19.66811 | -101.09172 | 34027 ft | 447 kts | 291° |
| 2026-04-24 03:13 | 19.67861 | -101.12269 | 34371 ft | 446 kts | 291° |
| 2026-04-24 03:14 | 19.68912 | -101.15372 | 34654 ft | 446 kts | 291° |
| 2026-04-24 03:14 | 19.69952 | -101.18444 | 34892 ft | 446 kts | 291° |
| 2026-04-24 03:14 | 19.71008 | -101.21566 | 35166 ft | 445 kts | 291° |
| 2026-04-24 03:14 | 19.72067 | -101.24700 | 35465 ft | 444 kts | 291° |
| 2026-04-24 03:15 | 19.73106 | -101.27776 | 35765 ft | 442 kts | 291° |
| 2026-04-24 03:15 | 19.74133 | -101.30818 | 35978 ft | 443 kts | 291° |
| 2026-04-24 03:15 | 19.75173 | -101.33898 | 36170 ft | 444 kts | 291° |
| 2026-04-24 03:15 | 19.76217 | -101.36996 | 36398 ft | 444 kts | 291° |
| 2026-04-24 03:16 | 19.77254 | -101.40074 | 36594 ft | 444 kts | 291° |
| 2026-04-24 03:16 | 19.79357 | -101.46318 | 36685 ft | 451 kts | 290° |
| 2026-04-24 03:17 | 19.81466 | -101.52589 | 36807 ft | 455 kts | 290° |
| 2026-04-24 03:17 | 19.82528 | -101.55753 | 36946 ft | 454 kts | 290° |
| 2026-04-24 03:17 | 19.83601 | -101.58949 | 37132 ft | 453 kts | 290° |
| 2026-04-24 03:17 | 19.84645 | -101.62064 | 37273 ft | 453 kts | 290° |
| 2026-04-24 03:18 | 19.85701 | -101.65215 | 37387 ft | 453 kts | 290° |
| 2026-04-24 03:18 | 19.86756 | -101.68365 | 37502 ft | 453 kts | 290° |
| 2026-04-24 03:18 | 19.87811 | -101.71515 | 37642 ft | 452 kts | 290° |
| 2026-04-24 03:18 | 19.88878 | -101.74704 | 37797 ft | 451 kts | 290° |
| 2026-04-24 03:19 | 19.89928 | -101.77845 | 37924 ft | 451 kts | 290° |
| 2026-04-24 03:19 | 19.92026 | -101.84126 | 37997 ft | 450 kts | 290° |
| 2026-04-24 03:20 | 19.94106 | -101.90363 | 37992 ft | 451 kts | 290° |
| 2026-04-24 03:20 | 19.96200 | -101.96648 | 37989 ft | 451 kts | 290° |
| 2026-04-24 03:21 | 19.98298 | -102.02955 | 37986 ft | 451 kts | 290° |
| 2026-04-24 03:21 | 20.00385 | -102.09236 | 37971 ft | 450 kts | 290° |
| 2026-04-24 03:22 | 20.02468 | -102.15514 | 37976 ft | 450 kts | 290° |
| 2026-04-24 03:22 | 20.04591 | -102.21921 | 37965 ft | 450 kts | 290° |
| 2026-04-24 03:23 | 20.06670 | -102.28205 | 37959 ft | 450 kts | 290° |
| 2026-04-24 03:23 | 20.08743 | -102.34476 | 37964 ft | 450 kts | 290° |
| 2026-04-24 03:24 | 20.10829 | -102.40799 | 37950 ft | 450 kts | 290° |
| 2026-04-24 03:24 | 20.12898 | -102.47077 | 37957 ft | 450 kts | 290° |
| 2026-04-24 03:25 | 20.14980 | -102.53402 | 37955 ft | 450 kts | 290° |
| 2026-04-24 03:25 | 20.16737 | -102.58748 | 37959 ft | 450 kts | 290° |
| 2026-04-24 03:26 | 20.18831 | -102.65125 | 37957 ft | 450 kts | 290° |
| 2026-04-24 03:26 | 20.21176 | -102.71271 | 37955 ft | 449 kts | 298° |
| 2026-04-24 03:27 | 20.24211 | -102.77072 | 37957 ft | 449 kts | 300° |
| 2026-04-24 03:27 | 20.27286 | -102.82862 | 37966 ft | 449 kts | 300° |
| 2026-04-24 03:28 | 20.30326 | -102.88670 | 37963 ft | 449 kts | 299° |
| 2026-04-24 03:28 | 20.33325 | -102.94449 | 37965 ft | 448 kts | 299° |
| 2026-04-24 03:29 | 20.36340 | -103.00276 | 37990 ft | 448 kts | 299° |
| 2026-04-24 03:29 | 20.39349 | -103.06094 | 38043 ft | 448 kts | 299° |
| 2026-04-24 03:30 | 20.42359 | -103.11917 | 38087 ft | 448 kts | 299° |
| 2026-04-24 03:30 | 20.45358 | -103.17727 | 38131 ft | 447 kts | 298° |
| 2026-04-24 03:31 | 20.48356 | -103.23541 | 38178 ft | 447 kts | 298° |
| 2026-04-24 03:31 | 20.51369 | -103.29358 | 38172 ft | 447 kts | 301° |
| 2026-04-24 03:32 | 20.55229 | -103.34560 | 38185 ft | 448 kts | 313° |
| 2026-04-24 03:32 | 20.59630 | -103.39271 | 38164 ft | 448 kts | 314° |
| 2026-04-24 03:33 | 20.64039 | -103.43992 | 38116 ft | 448 kts | 314° |
| 2026-04-24 03:33 | 20.68407 | -103.48736 | 38081 ft | 448 kts | 313° |
| 2026-04-24 03:34 | 20.72775 | -103.53507 | 38030 ft | 449 kts | 313° |
| 2026-04-24 03:34 | 20.77134 | -103.58273 | 37991 ft | 448 kts | 313° |
| 2026-04-24 03:35 | 20.81498 | -103.63045 | 37989 ft | 449 kts | 313° |
| 2026-04-24 03:35 | 20.85866 | -103.67826 | 37987 ft | 449 kts | 313° |
| 2026-04-24 03:36 | 20.90222 | -103.72607 | 37971 ft | 449 kts | 313° |
| 2026-04-24 03:36 | 20.94577 | -103.77408 | 37993 ft | 449 kts | 313° |
| 2026-04-24 03:37 | 20.98895 | -103.82174 | 37993 ft | 449 kts | 313° |
| 2026-04-24 03:37 | 21.03248 | -103.86981 | 38005 ft | 450 kts | 313° |
| 2026-04-24 03:38 | 21.07609 | -103.91800 | 37992 ft | 449 kts | 313° |
| 2026-04-24 03:38 | 21.11949 | -103.96597 | 38006 ft | 448 kts | 313° |
| 2026-04-24 03:39 | 21.16286 | -104.01379 | 38011 ft | 448 kts | 313° |
| 2026-04-24 03:39 | 21.20634 | -104.06178 | 38008 ft | 448 kts | 313° |
| 2026-04-24 03:40 | 21.24966 | -104.10974 | 38019 ft | 448 kts | 313° |
| 2026-04-24 03:40 | 21.29296 | -104.15788 | 38015 ft | 448 kts | 313° |
| 2026-04-24 03:41 | 21.33287 | -104.20886 | 38027 ft | 445 kts | 301° |
| 2026-04-24 03:41 | 21.35916 | -104.26869 | 38037 ft | 444 kts | 289° |
| 2026-04-24 03:42 | 21.37969 | -104.33236 | 38023 ft | 445 kts | 289° |
| 2026-04-24 03:42 | 21.39986 | -104.39526 | 38032 ft | 445 kts | 289° |
| 2026-04-24 03:43 | 21.42031 | -104.45814 | 38016 ft | 445 kts | 289° |
| 2026-04-24 03:43 | 21.44083 | -104.52079 | 38023 ft | 445 kts | 289° |
| 2026-04-24 03:44 | 21.46143 | -104.58368 | 38037 ft | 447 kts | 289° |
| 2026-04-24 03:44 | 21.48201 | -104.64658 | 38052 ft | 446 kts | 289° |
| 2026-04-24 03:45 | 21.50252 | -104.70942 | 38077 ft | 445 kts | 289° |
| 2026-04-24 03:45 | 21.52300 | -104.77223 | 38089 ft | 445 kts | 289° |
| 2026-04-24 03:46 | 21.54343 | -104.83499 | 38078 ft | 445 kts | 289° |
| 2026-04-24 03:46 | 21.56375 | -104.89750 | 38074 ft | 445 kts | 289° |
| 2026-04-24 03:47 | 21.58416 | -104.96038 | 38056 ft | 445 kts | 289° |
| 2026-04-24 03:47 | 21.60453 | -105.02324 | 38031 ft | 446 kts | 289° |
| 2026-04-24 03:48 | 21.62490 | -105.08618 | 38005 ft | 446 kts | 289° |
| 2026-04-24 03:48 | 21.64529 | -105.14924 | 37965 ft | 446 kts | 289° |
| 2026-04-24 03:49 | 21.66560 | -105.21220 | 37974 ft | 445 kts | 289° |
| 2026-04-24 03:49 | 21.68587 | -105.27509 | 37968 ft | 445 kts | 289° |
| 2026-04-24 03:50 | 21.70595 | -105.33750 | 37962 ft | 444 kts | 289° |
| 2026-04-24 03:50 | 21.72613 | -105.40032 | 37955 ft | 444 kts | 288° |
| 2026-04-24 03:51 | 21.74627 | -105.46308 | 37956 ft | 444 kts | 288° |
| 2026-04-24 03:51 | 21.76564 | -105.52610 | 37964 ft | 443 kts | 287° |
| 2026-04-24 03:52 | 21.78369 | -105.58951 | 37954 ft | 443 kts | 286° |
| 2026-04-24 03:52 | 21.80163 | -105.65283 | 37950 ft | 443 kts | 286° |
| 2026-04-24 03:53 | 21.81972 | -105.71620 | 37961 ft | 442 kts | 286° |
| 2026-04-24 03:53 | 21.83786 | -105.77948 | 37954 ft | 442 kts | 286° |
| 2026-04-24 03:54 | 21.85596 | -105.84267 | 37955 ft | 442 kts | 286° |
| 2026-04-24 03:54 | 21.87100 | -105.89525 | 37947 ft | 442 kts | 286° |
| 2026-04-24 03:55 | 21.88906 | -105.95851 | 37949 ft | 442 kts | 286° |
| 2026-04-24 03:55 | 21.90709 | -106.02176 | 37959 ft | 442 kts | 286° |
| 2026-04-24 03:56 | 21.92508 | -106.08499 | 37951 ft | 442 kts | 286° |
| 2026-04-24 03:56 | 21.94309 | -106.14837 | 37961 ft | 442 kts | 286° |
| 2026-04-24 03:57 | 21.96106 | -106.21172 | 37951 ft | 442 kts | 286° |
| 2026-04-24 03:57 | 21.97899 | -106.27503 | 37953 ft | 442 kts | 286° |
| 2026-04-24 03:58 | 21.99692 | -106.33846 | 37953 ft | 442 kts | 286° |
| 2026-04-24 03:58 | 22.01481 | -106.40182 | 37958 ft | 442 kts | 286° |
| 2026-04-24 03:59 | 22.03268 | -106.46525 | 37950 ft | 442 kts | 285° |
| 2026-04-24 03:59 | 22.05051 | -106.52864 | 37956 ft | 442 kts | 285° |
| 2026-04-24 04:00 | 22.06831 | -106.59199 | 37954 ft | 442 kts | 285° |
| 2026-04-24 04:00 | 22.08751 | -106.65495 | 37964 ft | 442 kts | 289° |
| 2026-04-24 04:01 | 22.10977 | -106.71694 | 37942 ft | 442 kts | 292° |
| 2026-04-24 04:01 | 22.13215 | -106.77822 | 37958 ft | 442 kts | 290° |
| 2026-04-24 04:02 | 22.15442 | -106.84000 | 37968 ft | 442 kts | 289° |
| 2026-04-24 04:02 | 22.17653 | -106.90199 | 37950 ft | 442 kts | 289° |
| 2026-04-24 04:03 | 22.19849 | -106.96384 | 37949 ft | 442 kts | 289° |
| 2026-04-24 04:03 | 22.22046 | -107.02581 | 37960 ft | 441 kts | 289° |
| 2026-04-24 04:04 | 22.24236 | -107.08768 | 37949 ft | 441 kts | 289° |
| 2026-04-24 04:04 | 22.26424 | -107.14952 | 37953 ft | 441 kts | 289° |
| 2026-04-24 04:05 | 22.28627 | -107.21189 | 37952 ft | 441 kts | 289° |
| 2026-04-24 04:05 | 22.30794 | -107.27333 | 37952 ft | 440 kts | 289° |
| 2026-04-24 04:06 | 22.32973 | -107.33517 | 37950 ft | 440 kts | 289° |
| 2026-04-24 04:06 | 22.35145 | -107.39692 | 37949 ft | 440 kts | 289° |
| 2026-04-24 04:07 | 22.37317 | -107.45877 | 37956 ft | 440 kts | 289° |
| 2026-04-24 04:07 | 22.39471 | -107.52017 | 37951 ft | 439 kts | 289° |
| 2026-04-24 04:08 | 22.41636 | -107.58198 | 37947 ft | 439 kts | 289° |
| 2026-04-24 04:08 | 22.43796 | -107.64372 | 37950 ft | 439 kts | 289° |
| 2026-04-24 04:09 | 22.45954 | -107.70549 | 37948 ft | 439 kts | 289° |
| 2026-04-24 04:09 | 22.48107 | -107.76721 | 37952 ft | 438 kts | 289° |
| 2026-04-24 04:10 | 22.50259 | -107.82900 | 37954 ft | 438 kts | 289° |
| 2026-04-24 04:10 | 22.52404 | -107.89066 | 37952 ft | 438 kts | 288° |
| 2026-04-24 04:11 | 22.55619 | -107.98327 | 37954 ft | 438 kts | 288° |
| 2026-04-24 04:11 | 22.57741 | -108.04448 | 37951 ft | 437 kts | 288° |
| 2026-04-24 04:12 | 22.59876 | -108.10616 | 37952 ft | 437 kts | 288° |
| 2026-04-24 04:12 | 22.62006 | -108.16777 | 37948 ft | 437 kts | 288° |
| 2026-04-24 04:13 | 22.64134 | -108.22942 | 37947 ft | 436 kts | 288° |
| 2026-04-24 04:13 | 22.66245 | -108.29065 | 37862 ft | 426 kts | 288° |
| 2026-04-24 04:14 | 22.67267 | -108.32029 | 37228 ft | 415 kts | 288° |
| 2026-04-24 04:14 | 22.68276 | -108.34962 | 36122 ft | 417 kts | 288° |
| 2026-04-24 04:14 | 22.69292 | -108.37922 | 34823 ft | 422 kts | 288° |
| 2026-04-24 04:14 | 22.70322 | -108.40925 | 33410 ft | 429 kts | 289° |
| 2026-04-24 04:15 | 22.71368 | -108.43976 | 31929 ft | 434 kts | 289° |
| 2026-04-24 04:15 | 22.72428 | -108.47064 | 30537 ft | 437 kts | 289° |
| 2026-04-24 04:15 | 22.73489 | -108.50154 | 29093 ft | 437 kts | 289° |
| 2026-04-24 04:15 | 22.74546 | -108.53237 | 27653 ft | 435 kts | 289° |
| 2026-04-24 04:16 | 22.75591 | -108.56297 | 26318 ft | 431 kts | 289° |
| 2026-04-24 04:16 | 22.76625 | -108.59334 | 25059 ft | 427 kts | 289° |
| 2026-04-24 04:16 | 22.77645 | -108.62333 | 23885 ft | 422 kts | 289° |
| 2026-04-24 04:16 | 22.78653 | -108.65302 | 22617 ft | 417 kts | 290° |
| 2026-04-24 04:17 | 22.79647 | -108.68231 | 21358 ft | 411 kts | 290° |
| 2026-04-24 04:17 | 22.80625 | -108.71114 | 20171 ft | 404 kts | 290° |
| 2026-04-24 04:17 | 22.81589 | -108.73955 | 19052 ft | 398 kts | 290° |
| 2026-04-24 04:17 | 22.82535 | -108.76748 | 17952 ft | 391 kts | 290° |
| 2026-04-24 04:18 | 22.83454 | -108.79462 | 16785 ft | 385 kts | 290° |
| 2026-04-24 04:18 | 22.84370 | -108.82166 | 15679 ft | 379 kts | 290° |
| 2026-04-24 04:18 | 22.85274 | -108.84835 | 14772 ft | 373 kts | 290° |
| 2026-04-24 04:18 | 22.86166 | -108.87472 | 14006 ft | 370 kts | 290° |
| 2026-04-24 04:19 | 22.87040 | -108.90053 | 13785 ft | 370 kts | 290° |
| 2026-04-24 04:19 | 22.87951 | -108.92739 | 13545 ft | 387 kts | 290° |
| 2026-04-24 04:19 | 22.88893 | -108.95517 | 13311 ft | 397 kts | 290° |
| 2026-04-24 04:19 | 22.89866 | -108.98386 | 13090 ft | 399 kts | 290° |
| 2026-04-24 04:20 | 22.90806 | -109.01163 | 12855 ft | 396 kts | 290° |
| 2026-04-24 04:20 | 22.91758 | -109.03975 | 12658 ft | 401 kts | 290° |
| 2026-04-24 04:20 | 22.92712 | -109.06798 | 12476 ft | 393 kts | 289° |
| 2026-04-24 04:20 | 22.93647 | -109.09566 | 12240 ft | 390 kts | 289° |
| 2026-04-24 04:21 | 22.94583 | -109.12337 | 12021 ft | 391 kts | 289° |
| 2026-04-24 04:21 | 22.95514 | -109.15100 | 11803 ft | 389 kts | 289° |
| 2026-04-24 04:21 | 22.96442 | -109.17851 | 11590 ft | 387 kts | 289° |
| 2026-04-24 04:21 | 22.97364 | -109.20588 | 11386 ft | 385 kts | 289° |
| 2026-04-24 04:22 | 22.98281 | -109.23313 | 11166 ft | 384 kts | 289° |
| 2026-04-24 04:22 | 22.99196 | -109.26029 | 10961 ft | 378 kts | 289° |
| 2026-04-24 04:22 | 23.00114 | -109.28634 | 10744 ft | 359 kts | 294° |
| 2026-04-24 04:22 | 23.01472 | -109.30815 | 10549 ft | 343 kts | 311° |
| 2026-04-24 04:23 | 23.03122 | -109.32603 | 10381 ft | 327 kts | 314° |
| 2026-04-24 04:23 | 23.04742 | -109.34268 | 10202 ft | 313 kts | 314° |
| 2026-04-24 04:23 | 23.06296 | -109.35861 | 10038 ft | 301 kts | 314° |
| 2026-04-24 04:23 | 23.07778 | -109.37394 | 9933 ft | 287 kts | 314° |
| 2026-04-24 04:24 | 23.09183 | -109.38860 | 9781 ft | 276 kts | 313° |
| 2026-04-24 04:24 | 23.10546 | -109.40293 | 9601 ft | 269 kts | 313° |
| 2026-04-24 04:24 | 23.11887 | -109.41707 | 9448 ft | 269 kts | 313° |
| 2026-04-24 04:24 | 23.13229 | -109.43124 | 9289 ft | 270 kts | 313° |
| 2026-04-24 04:25 | 23.14561 | -109.44532 | 9160 ft | 272 kts | 313° |
| 2026-04-24 04:25 | 23.15940 | -109.45990 | 9008 ft | 274 kts | 313° |
| 2026-04-24 04:25 | 23.17320 | -109.47447 | 8635 ft | 279 kts | 313° |
| 2026-04-24 04:25 | 23.18689 | -109.48889 | 8258 ft | 277 kts | 313° |
| 2026-04-24 04:26 | 23.20068 | -109.50342 | 7896 ft | 275 kts | 313° |
| 2026-04-24 04:26 | 23.21435 | -109.51782 | 7527 ft | 274 kts | 314° |
| 2026-04-24 04:26 | 23.22799 | -109.53221 | 7148 ft | 272 kts | 314° |
| 2026-04-24 04:26 | 23.24158 | -109.54655 | 6778 ft | 271 kts | 314° |
| 2026-04-24 04:27 | 23.25514 | -109.56087 | 6391 ft | 271 kts | 314° |
| 2026-04-24 04:27 | 23.26865 | -109.57515 | 6006 ft | 271 kts | 314° |
| 2026-04-24 04:27 | 23.28215 | -109.58941 | 5609 ft | 270 kts | 314° |
| 2026-04-24 04:27 | 23.29554 | -109.60355 | 5436 ft | 260 kts | 315° |
| 2026-04-24 04:28 | 23.30806 | -109.61677 | 5340 ft | 242 kts | 315° |
| 2026-04-24 04:28 | 23.31981 | -109.62918 | 5218 ft | 228 kts | 315° |
| 2026-04-24 04:28 | 23.33079 | -109.64079 | 5107 ft | 213 kts | 314° |
| 2026-04-24 04:28 | 23.33817 | -109.65382 | 4990 ft | 197 kts | 283° |
| 2026-04-24 04:29 | 23.33921 | -109.66796 | 4897 ft | 181 kts | 265° |
| 2026-04-24 04:29 | 23.33803 | -109.68103 | 4754 ft | 171 kts | 263° |
| 2026-04-24 04:29 | 23.33670 | -109.69381 | 4475 ft | 170 kts | 263° |
| 2026-04-24 04:29 | 23.33541 | -109.70651 | 4176 ft | 170 kts | 264° |
| 2026-04-24 04:30 | 23.33412 | -109.71936 | 4054 ft | 173 kts | 264° |
| 2026-04-24 04:30 | 23.33090 | -109.73190 | 3986 ft | 174 kts | 233° |
| 2026-04-24 04:30 | 23.32134 | -109.73886 | 3986 ft | 168 kts | 190° |
| 2026-04-24 04:30 | 23.30966 | -109.73840 | 4013 ft | 171 kts | 175° |
| 2026-04-24 04:31 | 23.29771 | -109.73713 | 4000 ft | 172 kts | 175° |
| 2026-04-24 04:31 | 23.28579 | -109.73585 | 3992 ft | 171 kts | 175° |
| 2026-04-24 04:31 | 23.27398 | -109.73455 | 3899 ft | 175 kts | 175° |
| 2026-04-24 04:31 | 23.26530 | -109.73364 | 3417 ft | 194 kts | 174° |
| 2026-04-24 04:32 | 23.24763 | -109.73198 | 2904 ft | 175 kts | 174° |
| 2026-04-24 04:32 | 23.24018 | -109.73123 | 2803 ft | 155 kts | 174° |
| 2026-04-24 04:32 | 23.22970 | -109.72986 | 2210 ft | 154 kts | 173° |
| 2026-04-24 04:32 | 23.21865 | -109.72838 | 1477 ft | 160 kts | 173° |
| 2026-04-24 04:33 | 23.20543 | -109.72703 | 1141 ft | 133 kts | 173° |
| 2026-04-24 04:33 | 23.19924 | -109.72628 | 1052 ft | 135 kts | 173° |
| 2026-04-24 04:33 | 23.18980 | -109.72518 | 937 ft | 138 kts | 174° |
| 2026-04-24 04:33 | 23.18030 | -109.72401 | 750 ft | 137 kts | 173° |
| 2026-04-24 04:34 | 23.17073 | -109.72283 | 541 ft | 138 kts | 175° |
| 2026-04-24 04:34 | 23.16144 | -109.72182 | 379 ft | 129 kts | 175° |
| 2026-04-24 04:34 | 23.15366 | -109.72095 | 364 ft | 93 kts | 174° |
| 2026-04-24 04:34 | 23.14878 | -109.72040 | 346 ft | 33 kts | 174° |
| 2026-04-24 04:35 | 23.14710 | -109.72003 | 335 ft | 26 kts | 159° |
| 2026-04-24 04:35 | 23.14574 | -109.71923 | 331 ft | 20 kts | 145° |
| 2026-04-24 04:35 | 23.14474 | -109.71827 | 321 ft | 15 kts | 101° |
| 2026-04-24 04:35 | 23.14534 | -109.71791 | 325 ft | 10 kts | 357° |
| 2026-04-24 04:36 | 23.14595 | -109.71798 | 326 ft | 8 kts | 353° |
| 2026-04-24 04:36 | 23.14639 | -109.71804 | 329 ft | 5 kts | 353° |
| 2026-04-24 04:36 | 23.14657 | -109.71806 | 330 ft | 0 kts | 353° |
| 2026-04-24 04:37 | 23.14658 | -109.71806 | 330 ft | 0 kts | 352° |
| 2026-04-24 04:37 | 23.14660 | -109.71807 | 330 ft | 0 kts | 352° |
| 2026-04-24 04:38 | 23.14667 | -109.71808 | 329 ft | 4 kts | 352° |
| 2026-04-24 04:38 | 23.14685 | -109.71810 | 331 ft | 1 kts | 353° |
| 2026-04-24 04:39 | 23.14688 | -109.71810 | 332 ft | 1 kts | 354° |
| 2026-04-24 04:39 | 23.14738 | -109.71816 | 335 ft | 12 kts | 355° |
| 2026-04-24 04:39 | 23.14822 | -109.71824 | 338 ft | 12 kts | 354° |
| 2026-04-24 04:39 | 23.14902 | -109.71834 | 347 ft | 13 kts | 354° |
| 2026-04-24 04:40 | 23.15020 | -109.71848 | 349 ft | 20 kts | 354° |
| 2026-04-24 04:40 | 23.15162 | -109.71864 | 354 ft | 21 kts | 354° |
| 2026-04-24 04:40 | 23.15315 | -109.71881 | 357 ft | 23 kts | 354° |
| 2026-04-24 04:40 | 23.15479 | -109.71899 | 359 ft | 24 kts | 354° |
| 2026-04-24 04:41 | 23.15600 | -109.71899 | 361 ft | 6 kts | 43° |
| 2026-04-24 04:41 | 23.15612 | -109.71858 | 366 ft | 6 kts | 65° |
| 2026-04-24 04:41 | 23.15659 | -109.71837 | 363 ft | 10 kts | 355° |
| 2026-04-24 04:41 | 23.15743 | -109.71846 | 364 ft | 14 kts | 354° |
| 2026-04-24 04:42 | 23.15855 | -109.71859 | 363 ft | 18 kts | 354° |
| 2026-04-24 04:42 | 23.15996 | -109.71874 | 363 ft | 22 kts | 355° |
| 2026-04-24 04:42 | 23.16147 | -109.71892 | 363 ft | 13 kts | 353° |
| 2026-04-24 04:42 | 23.16201 | -109.71897 | 363 ft | 0 kts | 355° |
| 2026-04-24 04:43 | 23.16221 | -109.71899 | 365 ft | 6 kts | 358° |
| 2026-04-24 04:44 | 23.16242 | -109.71869 | 363 ft | 5 kts | 78° |
| 2026-04-24 04:44 | 23.16244 | -109.71850 | 363 ft | 2 kts | 85° |
| 2026-04-24 04:44 | 23.16244 | -109.71849 | 363 ft | 0 kts | 85° |